createdAt,value
2019-03-03T00:02:15.612Z,14.63
2019-03-03T00:04:45.291Z,15.33
2019-03-03T00:07:14.994Z,21.63
2019-03-03T00:09:44.625Z,15.53
2019-03-03T00:12:14.252Z,12.37
2019-03-03T00:14:43.922Z,16.33
2019-03-03T00:17:13.530Z,15.13
2019-03-03T00:19:43.162Z,17.30
2019-03-03T00:22:12.817Z,11.50
2019-03-03T00:24:42.455Z,14.50
2019-03-03T00:27:12.195Z,15.80
2019-03-03T00:29:41.838Z,16.00
2019-03-03T00:32:11.525Z,14.43
2019-03-03T00:34:41.181Z,15.17
2019-03-03T00:37:17.507Z,16.37
2019-03-03T00:39:55.392Z,11.70
2019-03-03T00:42:33.362Z,13.23
2019-03-03T00:45:09.226Z,15.10
2019-03-03T00:47:44.349Z,12.33
2019-03-03T00:50:20.223Z,11.47
2019-03-03T00:52:55.006Z,12.07
2019-03-03T00:55:55.252Z,15.40
2019-03-03T00:58:30.241Z,17.13
2019-03-03T01:01:04.160Z,17.53
2019-03-03T01:03:38.167Z,14.30
2019-03-03T01:06:18.026Z,13.70
2019-03-03T01:08:56.036Z,13.90
2019-03-03T01:11:30.689Z,12.07
2019-03-03T01:14:10.989Z,15.27
2019-03-03T01:16:50.197Z,12.17
2019-03-03T01:20:26.253Z,18.67
2019-03-03T01:23:03.223Z,14.80
2019-03-03T01:25:33.050Z,13.13
2019-03-03T01:28:02.657Z,12.43
2019-03-03T01:30:32.277Z,17.57
2019-03-03T01:33:01.943Z,13.53
2019-03-03T01:35:31.592Z,14.80
2019-03-03T01:38:01.185Z,15.77
2019-03-03T01:40:32.033Z,19.33
2019-03-03T01:43:01.629Z,14.73
2019-03-03T01:45:31.269Z,16.63
2019-03-03T01:48:00.888Z,18.10
2019-03-03T01:50:32.927Z,18.77
2019-03-03T01:53:02.539Z,16.00
2019-03-03T01:55:32.162Z,17.03
2019-03-03T01:58:01.817Z,16.43
2019-03-03T02:00:31.495Z,14.97
2019-03-03T02:03:01.102Z,22.43
2019-03-03T02:05:31.991Z,19.40
2019-03-03T02:08:01.622Z,16.53
2019-03-03T02:10:31.255Z,21.07
2019-03-03T02:13:00.895Z,16.00
2019-03-03T02:15:30.518Z,21.17
2019-03-03T02:18:02.687Z,15.90
2019-03-03T02:20:33.618Z,17.30
2019-03-03T02:23:04.403Z,16.17
2019-03-03T02:25:34.082Z,14.27
2019-03-03T02:28:03.735Z,17.47
2019-03-03T02:30:33.359Z,15.73
2019-03-03T02:33:02.990Z,16.50
2019-03-03T02:35:32.633Z,17.57
2019-03-03T02:38:02.247Z,15.87
2019-03-03T02:40:34.371Z,16.57
2019-03-03T02:43:03.969Z,16.40
2019-03-03T02:45:33.578Z,14.57
2019-03-03T02:48:03.320Z,15.60
2019-03-03T02:50:32.958Z,17.20
2019-03-03T02:53:02.585Z,13.97
2019-03-03T02:55:33.550Z,15.53
2019-03-03T02:58:03.181Z,16.00
2019-03-03T03:00:32.833Z,15.40
2019-03-03T03:03:05.467Z,15.33
2019-03-03T03:06:13.766Z,15.83
2019-03-03T03:09:19.132Z,17.63
2019-03-03T03:11:53.019Z,15.97
2019-03-03T03:14:27.920Z,14.37
2019-03-03T03:17:06.024Z,18.07
2019-03-03T03:19:43.106Z,15.47
2019-03-03T03:22:48.213Z,14.60
2019-03-03T03:26:24.110Z,18.70
2019-03-03T03:28:59.217Z,15.73
2019-03-03T03:31:35.161Z,13.80
2019-03-03T03:34:10.879Z,14.43
2019-03-03T03:36:47.817Z,16.37
2019-03-03T03:39:23.554Z,14.47
2019-03-03T03:41:57.441Z,19.67
2019-03-03T03:44:32.471Z,17.87
2019-03-03T03:47:07.236Z,18.47
2019-03-03T03:49:45.975Z,15.17
2019-03-03T03:52:21.224Z,19.37
2019-03-03T03:54:57.111Z,18.63
2019-03-03T03:57:30.978Z,18.20
2019-03-03T04:00:08.979Z,18.67
2019-03-03T04:02:46.307Z,20.57
2019-03-03T04:05:21.441Z,19.47
2019-03-03T04:08:07.326Z,19.67
2019-03-03T04:10:41.215Z,18.07
2019-03-03T04:13:18.952Z,19.03
2019-03-03T04:15:57.858Z,18.17
2019-03-03T04:18:32.578Z,19.50
2019-03-03T04:21:06.478Z,19.80
2019-03-03T04:23:58.381Z,19.87
2019-03-03T04:26:33.466Z,20.33
2019-03-03T04:29:17.432Z,25.77
2019-03-03T04:32:07.101Z,20.80
2019-03-03T04:34:40.946Z,21.90
2019-03-03T04:37:46.110Z,21.17
2019-03-03T04:40:26.904Z,20.07
2019-03-03T04:43:01.682Z,22.47
2019-03-03T04:45:39.499Z,23.00
2019-03-03T04:48:14.245Z,20.40
2019-03-03T04:51:50.290Z,23.23
2019-03-03T04:54:26.057Z,23.23
2019-03-03T04:59:08.383Z,22.90
2019-03-03T05:01:43.121Z,21.37
2019-03-03T05:04:18.127Z,23.73
2019-03-03T05:06:52.010Z,23.03
2019-03-03T05:09:26.795Z,23.93
2019-03-03T05:13:11.891Z,22.83
2019-03-03T05:16:46.702Z,19.30
2019-03-03T05:19:26.545Z,23.60
2019-03-03T05:21:56.209Z,26.93
2019-03-03T05:24:33.866Z,23.60
2019-03-03T05:26:55.479Z,25.67
2019-03-03T05:29:25.133Z,22.17
2019-03-03T05:31:54.759Z,26.37
2019-03-03T05:34:24.419Z,24.93
2019-03-03T05:36:54.070Z,20.23
2019-03-03T05:39:23.667Z,24.43
2019-03-03T05:41:53.313Z,23.40
2019-03-03T05:44:22.975Z,23.27
2019-03-03T05:46:52.578Z,23.57
2019-03-03T05:49:22.218Z,21.03
2019-03-03T05:51:51.903Z,22.53
2019-03-03T05:54:21.525Z,25.83
2019-03-03T05:56:51.137Z,22.87
2019-03-03T05:59:20.807Z,23.53
2019-03-03T06:01:50.453Z,24.23
2019-03-03T06:04:20.082Z,24.20
2019-03-03T06:06:50.016Z,21.87
2019-03-03T06:09:19.718Z,22.77
2019-03-03T06:11:49.329Z,27.07
2019-03-03T06:14:18.979Z,29.30
2019-03-03T06:16:48.604Z,31.83
2019-03-03T06:19:18.238Z,26.47
2019-03-03T06:21:47.858Z,25.07
2019-03-03T06:24:18.762Z,28.77
2019-03-03T06:26:48.366Z,27.30
2019-03-03T06:29:18.017Z,28.60
2019-03-03T06:31:48.646Z,27.30
2019-03-03T06:34:18.286Z,26.33
2019-03-03T06:36:48.102Z,26.67
2019-03-03T06:39:18.911Z,30.37
2019-03-03T06:41:48.558Z,25.17
2019-03-03T06:44:18.178Z,27.70
2019-03-03T06:46:49.022Z,26.87
2019-03-03T06:49:18.630Z,25.20
2019-03-03T06:51:48.241Z,30.03
2019-03-03T06:54:17.916Z,33.10
2019-03-03T06:56:47.526Z,30.90
2019-03-03T06:59:17.149Z,31.30
2019-03-03T07:01:48.090Z,30.40
2019-03-03T07:04:17.713Z,29.20
2019-03-03T07:06:47.324Z,33.80
2019-03-03T07:09:19.361Z,29.17
2019-03-03T07:11:49.041Z,33.10
2019-03-03T07:14:18.664Z,31.90
2019-03-03T07:16:48.343Z,31.03
2019-03-03T07:19:17.962Z,28.47
2019-03-03T07:21:47.610Z,30.27
2019-03-03T07:24:18.439Z,32.27
2019-03-03T07:26:49.171Z,30.70
2019-03-03T07:29:18.858Z,28.37
2019-03-03T07:31:48.473Z,27.50
2019-03-03T07:34:20.451Z,30.30
2019-03-03T07:36:50.186Z,28.37
2019-03-03T07:39:19.946Z,28.50
2019-03-03T07:41:49.578Z,28.90
2019-03-03T07:44:19.205Z,30.37
2019-03-03T07:46:48.892Z,29.93
2019-03-03T07:49:18.589Z,30.13
2019-03-03T07:51:50.884Z,29.13
2019-03-03T07:54:20.482Z,30.43
2019-03-03T07:56:50.109Z,28.27
2019-03-03T07:59:19.747Z,28.17
2019-03-03T08:01:49.358Z,29.00
2019-03-03T08:04:19.097Z,28.03
2019-03-03T08:06:48.700Z,25.43
2019-03-03T08:09:18.302Z,30.07
2019-03-03T08:11:50.407Z,30.47
2019-03-03T08:14:20.022Z,26.87
2019-03-03T08:16:49.687Z,24.57
2019-03-03T08:19:19.315Z,26.73
2019-03-03T08:21:50.264Z,25.63
2019-03-03T08:24:19.870Z,32.70
2019-03-03T08:26:50.846Z,29.40
2019-03-03T08:29:20.456Z,30.47
2019-03-03T08:31:50.090Z,28.43
2019-03-03T08:34:19.736Z,27.10
2019-03-03T08:36:49.626Z,28.00
2019-03-03T08:39:21.770Z,29.13
2019-03-03T08:41:55.952Z,29.97
2019-03-03T08:44:33.370Z,29.50
2019-03-03T08:47:07.263Z,29.13
2019-03-03T08:49:43.143Z,32.30
2019-03-03T08:52:20.024Z,32.20
2019-03-03T08:54:58.448Z,33.07
2019-03-03T08:57:30.228Z,30.53
2019-03-03T09:00:06.022Z,30.70
2019-03-03T09:02:41.248Z,30.03
2019-03-03T09:05:21.337Z,30.90
2019-03-03T09:07:59.569Z,28.77
2019-03-03T09:10:48.484Z,30.03
2019-03-03T09:13:22.377Z,31.63
2019-03-03T09:15:59.171Z,27.77
2019-03-03T09:18:38.087Z,30.13
2019-03-03T09:21:13.314Z,26.77
2019-03-03T09:23:53.108Z,30.47
2019-03-03T09:26:29.406Z,29.37
2019-03-03T09:30:04.116Z,30.13
2019-03-03T09:32:42.183Z,27.97
2019-03-03T09:38:46.017Z,31.40
2019-03-03T09:41:21.012Z,28.47
2019-03-03T09:43:57.958Z,26.87
2019-03-03T09:46:37.127Z,34.10
2019-03-03T09:49:12.222Z,28.77
2019-03-03T09:51:55.215Z,28.47
2019-03-03T09:54:37.604Z,28.87
2019-03-03T09:57:29.803Z,26.73
2019-03-03T10:00:06.827Z,29.67
2019-03-03T10:04:46.805Z,29.50
2019-03-03T10:07:25.751Z,29.20
2019-03-03T10:10:02.610Z,29.37
2019-03-03T10:12:39.556Z,33.27
2019-03-03T10:15:16.671Z,28.27
2019-03-03T10:19:06.760Z,31.93
2019-03-03T10:21:34.085Z,32.03
2019-03-03T10:24:12.068Z,28.70
2019-03-03T10:27:49.723Z,27.63
2019-03-03T10:30:34.563Z,29.47
2019-03-03T10:33:17.869Z,33.17
2019-03-03T10:35:52.943Z,35.57
2019-03-03T10:38:35.935Z,34.50
2019-03-03T10:41:05.506Z,36.47
2019-03-03T10:43:41.266Z,30.73
2019-03-03T10:46:19.106Z,33.10
2019-03-03T10:48:55.232Z,33.17
2019-03-03T10:51:29.150Z,36.47
2019-03-03T10:54:04.308Z,34.67
2019-03-03T10:56:40.635Z,34.40
2019-03-03T10:59:15.791Z,33.60
2019-03-03T11:01:51.856Z,33.83
2019-03-03T11:04:25.834Z,30.90
2019-03-03T11:07:00.994Z,28.73
2019-03-03T11:09:41.246Z,37.03
2019-03-03T11:12:16.284Z,34.60
2019-03-03T11:14:55.216Z,29.80
2019-03-03T11:17:32.379Z,29.77
2019-03-03T11:20:06.258Z,30.77
2019-03-03T11:24:48.132Z,34.30
2019-03-03T11:27:27.976Z,30.20
2019-03-03T11:30:08.895Z,29.07
2019-03-03T11:32:45.917Z,31.17
2019-03-03T11:37:32.524Z,30.93
2019-03-03T11:40:16.270Z,29.87
2019-03-03T11:42:50.994Z,30.37
2019-03-03T11:45:30.126Z,27.47
2019-03-03T11:48:15.118Z,27.73
2019-03-03T11:50:52.579Z,25.30
2019-03-03T11:54:01.929Z,27.90
2019-03-03T11:56:38.994Z,31.03
2019-03-03T11:59:15.955Z,30.93
2019-03-03T12:01:55.250Z,30.27
2019-03-03T12:04:32.382Z,29.30
2019-03-03T12:09:10.280Z,25.63
2019-03-03T12:11:45.316Z,27.87
2019-03-03T12:14:50.926Z,22.43
2019-03-03T12:17:26.658Z,25.03
2019-03-03T12:20:16.422Z,23.27
2019-03-03T12:23:49.322Z,23.87
2019-03-03T12:27:00.579Z,21.00
2019-03-03T12:29:38.534Z,22.97
2019-03-03T12:32:27.519Z,26.20
2019-03-03T12:35:08.450Z,20.60
2019-03-03T12:37:49.345Z,18.13
2019-03-03T12:40:26.917Z,18.47
2019-03-03T12:43:35.803Z,14.30
2019-03-03T12:46:41.299Z,14.63
2019-03-03T12:49:17.539Z,15.50
2019-03-03T12:51:54.486Z,14.47
2019-03-03T12:54:36.411Z,16.17
2019-03-03T12:57:12.274Z,15.23
2019-03-03T12:59:46.235Z,15.03
2019-03-03T13:02:21.940Z,14.27
2019-03-03T13:04:57.877Z,14.47
2019-03-03T13:07:48.982Z,13.83
2019-03-03T13:10:22.849Z,13.93
2019-03-03T13:13:01.790Z,13.00
2019-03-03T13:15:39.270Z,12.83
2019-03-03T13:18:13.222Z,11.97
2019-03-03T13:21:49.594Z,13.33
2019-03-03T13:24:25.540Z,11.63
2019-03-03T13:27:00.773Z,13.73
2019-03-03T13:29:36.569Z,11.33
2019-03-03T13:32:12.466Z,12.30
2019-03-03T13:34:51.340Z,10.57
2019-03-03T13:37:31.356Z,12.20
2019-03-03T13:40:05.217Z,12.47
2019-03-03T13:42:41.704Z,10.07
2019-03-03T13:45:10.723Z,10.57
2019-03-03T13:47:40.420Z,11.13
2019-03-03T13:50:12.347Z,9.77
2019-03-03T13:52:43.430Z,10.67
2019-03-03T13:55:14.605Z,11.13
2019-03-03T13:57:44.249Z,9.13
2019-03-03T14:00:15.744Z,12.27
2019-03-03T14:02:45.394Z,8.07
2019-03-03T14:05:18.091Z,9.23
2019-03-03T14:07:47.774Z,8.40
2019-03-03T14:10:18.799Z,9.53
2019-03-03T14:12:48.515Z,9.37
2019-03-03T14:15:19.349Z,8.33
2019-03-03T14:17:49.113Z,9.93
2019-03-03T14:20:20.327Z,10.70
2019-03-03T14:22:51.683Z,7.77
2019-03-03T14:25:21.349Z,9.93
2019-03-03T14:27:51.126Z,8.77
2019-03-03T14:30:23.434Z,8.43
2019-03-03T14:32:53.119Z,6.30
2019-03-03T14:35:22.816Z,8.77
2019-03-03T14:37:55.095Z,9.67
2019-03-03T14:40:24.729Z,8.67
2019-03-03T14:42:57.004Z,8.97
2019-03-03T14:45:26.689Z,10.97
2019-03-03T14:47:56.311Z,10.83
2019-03-03T14:50:25.969Z,6.73
2019-03-03T14:52:55.763Z,7.47
2019-03-03T14:55:27.967Z,9.23
2019-03-03T14:57:58.859Z,8.00
2019-03-03T15:00:31.777Z,9.23
2019-03-03T15:03:03.103Z,10.20
2019-03-03T15:05:32.819Z,10.37
2019-03-03T15:08:02.670Z,11.50
2019-03-03T15:10:32.313Z,10.87
2019-03-03T15:13:01.987Z,8.17
2019-03-03T15:15:33.638Z,10.03
2019-03-03T15:18:03.318Z,10.80
2019-03-03T15:20:33.025Z,11.43
2019-03-03T15:23:02.704Z,9.60
2019-03-03T15:25:32.415Z,8.73
2019-03-03T15:28:02.054Z,9.70
2019-03-03T15:30:32.961Z,9.97
2019-03-03T15:33:02.596Z,10.57
2019-03-03T15:35:32.327Z,11.63
2019-03-03T15:38:02.056Z,9.63
2019-03-03T15:40:32.443Z,8.77
2019-03-03T15:43:04.691Z,11.80
2019-03-03T15:45:34.462Z,14.20
2019-03-03T15:48:04.233Z,9.60
2019-03-03T15:50:35.245Z,11.10
2019-03-03T15:53:04.880Z,9.50
2019-03-03T15:55:34.550Z,10.37
2019-03-03T15:58:05.482Z,8.67
2019-03-03T16:00:35.151Z,9.83
2019-03-03T16:03:04.898Z,12.17
2019-03-03T16:05:34.557Z,7.43
2019-03-03T16:08:05.544Z,9.60
2019-03-03T16:10:35.192Z,8.97
2019-03-03T16:13:04.866Z,8.03
2019-03-03T16:15:36.244Z,10.73
2019-03-03T16:18:10.074Z,8.53
2019-03-03T16:20:40.967Z,15.20
2019-03-03T16:23:11.523Z,7.57
2019-03-03T16:25:41.173Z,11.70
2019-03-03T16:28:12.014Z,9.37
2019-03-03T16:30:42.863Z,9.27
2019-03-03T16:33:20.118Z,11.40
2019-03-03T16:35:42.243Z,15.03
2019-03-03T16:38:11.890Z,12.17
2019-03-03T16:40:41.554Z,10.10
2019-03-03T16:43:11.465Z,7.70
2019-03-03T16:45:41.114Z,9.80
2019-03-03T16:48:11.599Z,10.20
2019-03-03T16:50:41.230Z,11.13
2019-03-03T16:53:12.096Z,11.93
2019-03-03T16:55:41.755Z,13.37
2019-03-03T16:58:11.381Z,11.73
2019-03-03T17:00:42.266Z,9.17
2019-03-03T17:03:13.143Z,9.90
2019-03-03T17:05:45.251Z,10.80
2019-03-03T17:08:14.887Z,11.17
2019-03-03T17:10:44.531Z,14.53
2019-03-03T17:13:15.412Z,9.60
2019-03-03T17:15:46.247Z,10.03
2019-03-03T17:18:15.894Z,8.70
2019-03-03T17:20:45.527Z,12.47
2019-03-03T17:23:15.282Z,12.20
2019-03-03T17:25:44.892Z,14.30
2019-03-03T17:28:14.531Z,10.77
2019-03-03T17:30:44.226Z,12.37
2019-03-03T17:33:14.460Z,13.53
2019-03-03T17:35:44.078Z,13.10
2019-03-03T17:38:15.063Z,13.07
2019-03-03T17:40:46.336Z,21.20
2019-03-03T17:43:17.192Z,10.30
2019-03-03T17:45:46.851Z,12.60
2019-03-03T17:48:16.516Z,12.97
2019-03-03T17:50:46.230Z,11.03
2019-03-03T17:53:17.213Z,18.87
2019-03-03T17:55:46.881Z,17.43
2019-03-03T17:58:16.493Z,17.77
2019-03-03T18:00:50.430Z,14.33
2019-03-03T18:03:20.074Z,12.30
2019-03-03T18:05:50.346Z,13.27
2019-03-03T18:08:19.974Z,13.03
2019-03-03T18:10:49.651Z,14.80
2019-03-03T18:13:19.264Z,13.70
2019-03-03T18:15:49.180Z,39.40
2019-03-03T18:18:19.999Z,34.97
2019-03-03T18:20:49.694Z,25.70
2019-03-03T18:23:19.309Z,17.17
2019-03-03T18:25:49.005Z,61.10
2019-03-03T18:28:18.649Z,23.27
2019-03-03T18:30:48.246Z,29.13
2019-03-03T18:33:20.202Z,17.93
2019-03-03T18:35:49.881Z,16.97
2019-03-03T18:38:19.507Z,17.40
2019-03-03T18:40:49.138Z,13.33
2019-03-03T18:43:21.239Z,13.93
2019-03-03T18:45:50.878Z,13.60
2019-03-03T18:48:20.497Z,10.50
2019-03-03T18:50:52.605Z,12.80
2019-03-03T18:53:22.222Z,12.67
2019-03-03T18:55:53.130Z,17.40
2019-03-03T18:58:22.791Z,13.67
2019-03-03T19:00:52.394Z,15.37
2019-03-03T19:03:22.757Z,20.53
2019-03-03T19:05:56.110Z,21.53
2019-03-03T19:08:24.470Z,17.17
2019-03-03T19:10:54.838Z,12.23
2019-03-03T19:13:24.665Z,11.43
2019-03-03T19:15:54.287Z,11.70
2019-03-03T19:18:23.967Z,10.43
2019-03-03T19:20:53.638Z,17.27
2019-03-03T19:23:23.263Z,14.60
2019-03-03T19:25:52.890Z,15.83
2019-03-03T19:28:22.529Z,13.90
2019-03-03T19:30:52.183Z,16.87
2019-03-03T19:33:28.067Z,12.70
2019-03-03T19:35:57.685Z,15.13
2019-03-03T19:38:27.291Z,15.97
2019-03-03T19:40:56.971Z,15.17
2019-03-03T19:43:28.026Z,17.63
2019-03-03T19:45:56.363Z,14.40
2019-03-03T19:48:26.042Z,17.30
2019-03-03T19:50:55.691Z,14.33
2019-03-03T19:53:27.757Z,20.10
2019-03-03T19:55:58.571Z,18.53
2019-03-03T19:58:29.510Z,15.53
2019-03-03T20:01:01.291Z,14.70
2019-03-03T20:03:30.937Z,15.77
2019-03-03T20:06:00.579Z,14.83
2019-03-03T20:08:31.034Z,15.63
2019-03-03T20:11:03.216Z,15.20
2019-03-03T20:13:32.889Z,16.50
2019-03-03T20:16:02.526Z,18.33
2019-03-03T20:18:32.421Z,17.33
2019-03-03T20:21:03.275Z,16.57
2019-03-03T20:23:32.988Z,17.47
2019-03-03T20:26:02.937Z,37.20
2019-03-03T20:28:32.984Z,17.80
2019-03-03T20:31:04.582Z,16.00
2019-03-03T20:33:34.367Z,20.47
2019-03-03T20:36:04.013Z,14.43
2019-03-03T20:38:33.849Z,15.23
2019-03-03T20:41:04.715Z,18.23
2019-03-03T20:43:34.363Z,14.13
2019-03-03T20:46:04.035Z,16.73
2019-03-03T20:48:34.838Z,15.53
2019-03-03T20:51:04.491Z,16.97
2019-03-03T20:53:34.182Z,14.90
2019-03-03T20:56:04.985Z,18.60
2019-03-03T20:58:34.646Z,15.50
2019-03-03T21:01:04.270Z,15.40
2019-03-03T21:03:36.492Z,14.87
2019-03-03T21:06:06.134Z,14.67
2019-03-03T21:08:35.823Z,15.07
2019-03-03T21:11:05.494Z,15.00
2019-03-03T21:13:36.373Z,13.70
2019-03-03T21:16:06.034Z,16.07
2019-03-03T21:18:37.005Z,18.90
2019-03-03T21:21:06.654Z,15.30
2019-03-03T21:23:36.339Z,11.80
2019-03-03T21:26:07.911Z,16.50
2019-03-03T21:28:37.562Z,13.90
2019-03-03T21:31:07.270Z,13.47
2019-03-03T21:33:36.922Z,12.47
2019-03-03T21:36:06.572Z,16.37
2019-03-03T21:38:36.208Z,12.70
2019-03-03T21:41:05.883Z,13.30
2019-03-03T21:43:35.551Z,15.20
2019-03-03T21:46:05.195Z,13.20
2019-03-03T21:48:36.015Z,14.57
2019-03-03T21:51:05.640Z,8.87
2019-03-03T21:53:35.307Z,7.73
2019-03-03T21:56:06.226Z,7.23
2019-03-03T21:58:35.968Z,4.20
2019-03-03T22:01:07.654Z,7.03
2019-03-03T22:03:35.328Z,6.17
2019-03-03T22:06:04.967Z,5.80
2019-03-03T22:08:34.636Z,4.23
2019-03-03T22:11:04.350Z,6.90
2019-03-03T22:13:33.979Z,3.73
2019-03-03T22:16:03.630Z,5.43
2019-03-03T22:18:34.469Z,6.03
2019-03-03T22:21:06.519Z,7.77
2019-03-03T22:23:36.248Z,7.90
2019-03-03T22:26:05.925Z,5.80
2019-03-03T22:28:36.427Z,11.07
2019-03-03T22:31:05.219Z,8.23
2019-03-03T22:33:34.906Z,11.27
2019-03-03T22:36:04.513Z,6.87
2019-03-03T22:38:34.128Z,12.33
2019-03-03T22:41:05.097Z,9.33
2019-03-03T22:43:34.708Z,8.03
2019-03-03T22:46:04.323Z,16.40
2019-03-03T22:48:33.973Z,7.53
2019-03-03T22:51:03.638Z,14.37
2019-03-03T22:53:33.285Z,16.57
2019-03-03T22:56:02.962Z,10.57
2019-03-03T22:58:33.811Z,16.53
2019-03-03T23:01:11.570Z,13.43
2019-03-03T23:03:46.609Z,21.50
2019-03-03T23:06:24.050Z,13.97
2019-03-03T23:11:12.445Z,19.50
2019-03-03T23:13:55.157Z,30.67
2019-03-03T23:16:46.853Z,22.37
2019-03-03T23:19:36.529Z,23.33
2019-03-03T23:23:13.098Z,25.23
2019-03-03T23:25:47.666Z,25.33
2019-03-03T23:28:21.862Z,27.07
2019-03-03T23:30:52.517Z,29.37
2019-03-03T23:33:22.188Z,26.37
2019-03-03T23:35:51.825Z,23.90
2019-03-03T23:38:21.454Z,24.13
2019-03-03T23:40:51.148Z,23.90
2019-03-03T23:43:20.794Z,26.50
2019-03-03T23:45:51.634Z,24.03
2019-03-03T23:48:21.272Z,20.80
2019-03-03T23:50:50.894Z,22.23
2019-03-03T23:53:20.524Z,22.43
2019-03-03T23:55:50.203Z,22.77
2019-03-03T23:58:19.827Z,25.03
